sensor_id;sensor_type;location;lat;lon;timestamp;P1;durP1;ratioP1;P2;durP2;ratioP2
31716;SDS011;18301;51.076;17.046;2024-01-27T00:03:58;4.97;;;1.67;;
31716;SDS011;18301;51.076;17.046;2024-01-27T00:09:00;7.35;;;1.70;;
31716;SDS011;18301;51.076;17.046;2024-01-27T00:14:02;6.35;;;1.75;;
31716;SDS011;18301;51.076;17.046;2024-01-27T00:19:04;8.25;;;1.60;;
31716;SDS011;18301;51.076;17.046;2024-01-27T00:24:06;3.75;;;1.20;;
31716;SDS011;18301;51.076;17.046;2024-01-27T00:29:08;7.22;;;1.67;;
31716;SDS011;18301;51.076;17.046;2024-01-27T00:34:09;6.82;;;1.77;;
31716;SDS011;18301;51.076;17.046;2024-01-27T00:39:11;5.57;;;1.50;;
31716;SDS011;18301;51.076;17.046;2024-01-27T00:44:13;8.23;;;2.08;;
31716;SDS011;18301;51.076;17.046;2024-01-27T00:49:14;8.45;;;1.55;;
31716;SDS011;18301;51.076;17.046;2024-01-27T00:54:16;5.75;;;1.65;;
31716;SDS011;18301;51.076;17.046;2024-01-27T00:59:18;9.02;;;1.73;;
31716;SDS011;18301;51.076;17.046;2024-01-27T01:04:20;4.43;;;1.50;;
31716;SDS011;18301;51.076;17.046;2024-01-27T01:09:21;4.38;;;1.70;;
31716;SDS011;18301;51.076;17.046;2024-01-27T01:14:23;5.80;;;1.60;;
31716;SDS011;18301;51.076;17.046;2024-01-27T01:19:25;11.32;;;2.08;;
31716;SDS011;18301;51.076;17.046;2024-01-27T01:24:29;9.75;;;1.90;;
31716;SDS011;18301;51.076;17.046;2024-01-27T01:29:31;11.23;;;2.35;;
31716;SDS011;18301;51.076;17.046;2024-01-27T01:34:32;9.75;;;1.55;;
31716;SDS011;18301;51.076;17.046;2024-01-27T01:39:35;4.88;;;1.48;;
31716;SDS011;18301;51.076;17.046;2024-01-27T01:44:37;11.32;;;1.85;;
31716;SDS011;18301;51.076;17.046;2024-01-27T01:49:39;7.47;;;1.85;;
31716;SDS011;18301;51.076;17.046;2024-01-27T01:54:41;6.35;;;1.42;;
31716;SDS011;18301;51.076;17.046;2024-01-27T01:59:43;6.47;;;1.42;;
31716;SDS011;18301;51.076;17.046;2024-01-27T02:04:45;7.85;;;1.58;;
31716;SDS011;18301;51.076;17.046;2024-01-27T02:09:49;7.50;;;1.63;;
31716;SDS011;18301;51.076;17.046;2024-01-27T02:14:51;8.93;;;2.03;;
31716;SDS011;18301;51.076;17.046;2024-01-27T02:19:53;9.93;;;1.83;;
31716;SDS011;18301;51.076;17.046;2024-01-27T02:24:55;6.65;;;1.60;;
31716;SDS011;18301;51.076;17.046;2024-01-27T02:29:56;8.07;;;1.83;;
31716;SDS011;18301;51.076;17.046;2024-01-27T02:34:58;4.70;;;1.50;;
31716;SDS011;18301;51.076;17.046;2024-01-27T02:39:59;5.13;;;1.60;;
31716;SDS011;18301;51.076;17.046;2024-01-27T02:45:01;6.47;;;1.58;;
31716;SDS011;18301;51.076;17.046;2024-01-27T02:50:04;7.45;;;1.48;;
31716;SDS011;18301;51.076;17.046;2024-01-27T02:55:07;6.85;;;1.40;;
31716;SDS011;18301;51.076;17.046;2024-01-27T03:00:09;10.02;;;1.75;;
31716;SDS011;18301;51.076;17.046;2024-01-27T03:05:11;7.28;;;1.40;;
31716;SDS011;18301;51.076;17.046;2024-01-27T03:10:15;10.15;;;1.45;;
31716;SDS011;18301;51.076;17.046;2024-01-27T03:15:17;8.00;;;1.75;;
31716;SDS011;18301;51.076;17.046;2024-01-27T03:20:18;6.43;;;1.80;;
31716;SDS011;18301;51.076;17.046;2024-01-27T03:25:20;8.75;;;1.90;;
31716;SDS011;18301;51.076;17.046;2024-01-27T03:30:22;5.70;;;1.38;;
31716;SDS011;18301;51.076;17.046;2024-01-27T03:35:24;5.70;;;1.60;;
31716;SDS011;18301;51.076;17.046;2024-01-27T03:40:25;8.50;;;1.60;;
31716;SDS011;18301;51.076;17.046;2024-01-27T03:45:27;7.05;;;1.58;;
31716;SDS011;18301;51.076;17.046;2024-01-27T03:50:29;7.00;;;2.15;;
31716;SDS011;18301;51.076;17.046;2024-01-27T03:55:30;9.27;;;2.33;;
31716;SDS011;18301;51.076;17.046;2024-01-27T04:00:33;9.68;;;1.88;;
31716;SDS011;18301;51.076;17.046;2024-01-27T04:05:34;11.90;;;1.50;;
31716;SDS011;18301;51.076;17.046;2024-01-27T04:10:36;8.15;;;1.33;;
31716;SDS011;18301;51.076;17.046;2024-01-27T04:15:38;6.00;;;1.60;;
31716;SDS011;18301;51.076;17.046;2024-01-27T04:20:40;8.85;;;1.98;;
31716;SDS011;18301;51.076;17.046;2024-01-27T04:25:43;5.78;;;1.25;;
31716;SDS011;18301;51.076;17.046;2024-01-27T04:30:45;7.60;;;1.55;;
31716;SDS011;18301;51.076;17.046;2024-01-27T04:35:46;5.60;;;1.67;;
31716;SDS011;18301;51.076;17.046;2024-01-27T04:40:49;4.50;;;1.35;;
31716;SDS011;18301;51.076;17.046;2024-01-27T04:45:50;10.52;;;2.05;;
31716;SDS011;18301;51.076;17.046;2024-01-27T04:50:52;5.82;;;1.70;;
31716;SDS011;18301;51.076;17.046;2024-01-27T04:55:54;6.78;;;1.70;;
31716;SDS011;18301;51.076;17.046;2024-01-27T05:00:56;3.97;;;1.13;;
31716;SDS011;18301;51.076;17.046;2024-01-27T05:05:57;7.88;;;1.92;;
31716;SDS011;18301;51.076;17.046;2024-01-27T05:10:59;6.05;;;1.77;;
31716;SDS011;18301;51.076;17.046;2024-01-27T05:16:00;6.63;;;1.65;;
31716;SDS011;18301;51.076;17.046;2024-01-27T05:21:02;8.02;;;1.90;;
31716;SDS011;18301;51.076;17.046;2024-01-27T05:26:05;6.22;;;1.83;;
31716;SDS011;18301;51.076;17.046;2024-01-27T05:31:07;6.90;;;1.17;;
31716;SDS011;18301;51.076;17.046;2024-01-27T05:36:10;6.82;;;1.70;;
31716;SDS011;18301;51.076;17.046;2024-01-27T05:41:11;8.88;;;2.00;;
31716;SDS011;18301;51.076;17.046;2024-01-27T05:46:13;11.02;;;2.47;;
31716;SDS011;18301;51.076;17.046;2024-01-27T05:51:15;9.45;;;2.00;;
31716;SDS011;18301;51.076;17.046;2024-01-27T05:56:16;8.90;;;2.17;;
31716;SDS011;18301;51.076;17.046;2024-01-27T06:01:21;6.85;;;1.55;;
31716;SDS011;18301;51.076;17.046;2024-01-27T06:06:23;9.18;;;1.50;;
31716;SDS011;18301;51.076;17.046;2024-01-27T06:11:25;4.75;;;1.52;;
31716;SDS011;18301;51.076;17.046;2024-01-27T06:16:27;9.95;;;2.10;;
31716;SDS011;18301;51.076;17.046;2024-01-27T06:21:29;4.70;;;1.63;;
31716;SDS011;18301;51.076;17.046;2024-01-27T06:26:31;6.40;;;1.55;;
31716;SDS011;18301;51.076;17.046;2024-01-27T06:31:32;6.07;;;1.67;;
31716;SDS011;18301;51.076;17.046;2024-01-27T06:36:34;10.93;;;2.22;;
31716;SDS011;18301;51.076;17.046;2024-01-27T06:41:36;7.43;;;1.90;;
31716;SDS011;18301;51.076;17.046;2024-01-27T06:46:38;10.63;;;2.03;;
31716;SDS011;18301;51.076;17.046;2024-01-27T06:51:39;6.53;;;1.73;;
31716;SDS011;18301;51.076;17.046;2024-01-27T06:56:41;6.47;;;2.05;;
31716;SDS011;18301;51.076;17.046;2024-01-27T07:01:48;5.00;;;1.40;;
31716;SDS011;18301;51.076;17.046;2024-01-27T07:06:50;8.20;;;2.10;;
31716;SDS011;18301;51.076;17.046;2024-01-27T07:11:52;7.47;;;2.10;;
31716;SDS011;18301;51.076;17.046;2024-01-27T07:16:54;7.13;;;1.90;;
31716;SDS011;18301;51.076;17.046;2024-01-27T07:21:55;7.57;;;1.95;;
31716;SDS011;18301;51.076;17.046;2024-01-27T07:26:57;4.93;;;1.77;;
31716;SDS011;18301;51.076;17.046;2024-01-27T07:32:01;9.50;;;1.80;;
31716;SDS011;18301;51.076;17.046;2024-01-27T07:37:02;7.32;;;2.17;;
31716;SDS011;18301;51.076;17.046;2024-01-27T07:42:04;8.82;;;2.08;;
31716;SDS011;18301;51.076;17.046;2024-01-27T07:47:06;6.40;;;2.42;;
31716;SDS011;18301;51.076;17.046;2024-01-27T07:52:08;9.73;;;2.33;;
31716;SDS011;18301;51.076;17.046;2024-01-27T07:57:10;10.13;;;2.35;;
31716;SDS011;18301;51.076;17.046;2024-01-27T08:02:13;5.30;;;1.80;;
31716;SDS011;18301;51.076;17.046;2024-01-27T08:07:15;7.97;;;1.60;;
31716;SDS011;18301;51.076;17.046;2024-01-27T08:12:17;10.13;;;2.30;;
31716;SDS011;18301;51.076;17.046;2024-01-27T08:17:19;7.82;;;1.83;;
31716;SDS011;18301;51.076;17.046;2024-01-27T08:22:21;10.48;;;2.50;;
31716;SDS011;18301;51.076;17.046;2024-01-27T08:27:23;8.82;;;2.55;;
31716;SDS011;18301;51.076;17.046;2024-01-27T08:32:24;12.73;;;2.95;;
31716;SDS011;18301;51.076;17.046;2024-01-27T08:37:26;11.30;;;2.30;;
31716;SDS011;18301;51.076;17.046;2024-01-27T08:42:28;6.47;;;2.22;;
31716;SDS011;18301;51.076;17.046;2024-01-27T08:47:30;12.15;;;2.83;;
31716;SDS011;18301;51.076;17.046;2024-01-27T08:52:32;7.63;;;2.10;;
31716;SDS011;18301;51.076;17.046;2024-01-27T08:57:37;7.20;;;1.67;;
31716;SDS011;18301;51.076;17.046;2024-01-27T09:02:38;8.38;;;2.00;;
31716;SDS011;18301;51.076;17.046;2024-01-27T09:07:40;12.95;;;2.40;;
31716;SDS011;18301;51.076;17.046;2024-01-27T09:12:42;8.18;;;2.00;;
31716;SDS011;18301;51.076;17.046;2024-01-27T09:17:44;7.88;;;2.08;;
31716;SDS011;18301;51.076;17.046;2024-01-27T09:22:46;7.10;;;2.05;;
31716;SDS011;18301;51.076;17.046;2024-01-27T09:27:48;9.48;;;2.05;;
31716;SDS011;18301;51.076;17.046;2024-01-27T09:32:50;5.63;;;2.08;;
31716;SDS011;18301;51.076;17.046;2024-01-27T09:37:52;11.45;;;2.60;;
31716;SDS011;18301;51.076;17.046;2024-01-27T09:42:53;9.10;;;2.20;;
31716;SDS011;18301;51.076;17.046;2024-01-27T09:48:00;9.45;;;2.28;;
31716;SDS011;18301;51.076;17.046;2024-01-27T09:53:02;9.90;;;2.10;;
31716;SDS011;18301;51.076;17.046;2024-01-27T09:58:09;10.27;;;2.13;;
31716;SDS011;18301;51.076;17.046;2024-01-27T10:03:10;6.72;;;2.10;;
31716;SDS011;18301;51.076;17.046;2024-01-27T10:08:12;6.95;;;2.10;;
31716;SDS011;18301;51.076;17.046;2024-01-27T10:13:14;14.90;;;2.20;;
31716;SDS011;18301;51.076;17.046;2024-01-27T10:18:27;10.68;;;2.70;;
31716;SDS011;18301;51.076;17.046;2024-01-27T10:23:30;9.90;;;2.03;;
31716;SDS011;18301;51.076;17.046;2024-01-27T10:28:32;10.82;;;2.15;;
31716;SDS011;18301;51.076;17.046;2024-01-27T10:33:33;10.23;;;2.15;;
31716;SDS011;18301;51.076;17.046;2024-01-27T10:38:38;11.70;;;2.30;;
31716;SDS011;18301;51.076;17.046;2024-01-27T10:43:40;11.05;;;2.40;;
31716;SDS011;18301;51.076;17.046;2024-01-27T10:48:42;13.20;;;2.50;;
31716;SDS011;18301;51.076;17.046;2024-01-27T10:53:48;6.20;;;2.13;;
31716;SDS011;18301;51.076;17.046;2024-01-27T10:58:53;8.25;;;1.98;;
31716;SDS011;18301;51.076;17.046;2024-01-27T11:03:56;8.60;;;2.08;;
31716;SDS011;18301;51.076;17.046;2024-01-27T11:09:00;9.15;;;2.10;;
31716;SDS011;18301;51.076;17.046;2024-01-27T11:14:06;6.00;;;1.92;;
31716;SDS011;18301;51.076;17.046;2024-01-27T11:19:08;15.18;;;2.88;;
31716;SDS011;18301;51.076;17.046;2024-01-27T11:24:13;12.35;;;2.20;;
31716;SDS011;18301;51.076;17.046;2024-01-27T11:29:15;10.63;;;2.05;;
31716;SDS011;18301;51.076;17.046;2024-01-27T11:34:21;9.50;;;2.30;;
31716;SDS011;18301;51.076;17.046;2024-01-27T11:39:30;7.55;;;1.83;;
31716;SDS011;18301;51.076;17.046;2024-01-27T11:44:35;8.95;;;2.00;;
31716;SDS011;18301;51.076;17.046;2024-01-27T11:49:37;9.00;;;2.20;;
31716;SDS011;18301;51.076;17.046;2024-01-27T11:54:44;8.43;;;1.83;;
31716;SDS011;18301;51.076;17.046;2024-01-27T11:59:46;6.20;;;2.20;;
31716;SDS011;18301;51.076;17.046;2024-01-27T12:04:48;13.32;;;2.20;;
31716;SDS011;18301;51.076;17.046;2024-01-27T12:09:51;11.18;;;2.47;;
31716;SDS011;18301;51.076;17.046;2024-01-27T12:14:53;12.32;;;2.15;;
31716;SDS011;18301;51.076;17.046;2024-01-27T12:19:55;6.38;;;2.45;;
31716;SDS011;18301;51.076;17.046;2024-01-27T12:25:10;7.63;;;1.92;;
31716;SDS011;18301;51.076;17.046;2024-01-27T12:30:15;6.50;;;2.33;;
31716;SDS011;18301;51.076;17.046;2024-01-27T12:35:17;11.07;;;2.10;;
31716;SDS011;18301;51.076;17.046;2024-01-27T12:40:19;12.73;;;1.92;;
31716;SDS011;18301;51.076;17.046;2024-01-27T12:45:25;5.80;;;1.95;;
31716;SDS011;18301;51.076;17.046;2024-01-27T12:50:29;7.50;;;1.95;;
31716;SDS011;18301;51.076;17.046;2024-01-27T12:55:32;6.20;;;1.90;;
31716;SDS011;18301;51.076;17.046;2024-01-27T13:00:33;4.95;;;1.83;;
31716;SDS011;18301;51.076;17.046;2024-01-27T13:05:35;7.53;;;1.80;;
31716;SDS011;18301;51.076;17.046;2024-01-27T13:10:36;6.53;;;1.95;;
31716;SDS011;18301;51.076;17.046;2024-01-27T13:15:39;9.98;;;2.08;;
31716;SDS011;18301;51.076;17.046;2024-01-27T13:20:40;7.03;;;2.10;;
31716;SDS011;18301;51.076;17.046;2024-01-27T13:25:42;5.43;;;1.88;;
31716;SDS011;18301;51.076;17.046;2024-01-27T13:31:02;7.53;;;1.92;;
31716;SDS011;18301;51.076;17.046;2024-01-27T13:36:04;10.00;;;2.00;;
31716;SDS011;18301;51.076;17.046;2024-01-27T13:41:06;5.15;;;2.03;;
31716;SDS011;18301;51.076;17.046;2024-01-27T13:46:07;9.07;;;2.00;;
31716;SDS011;18301;51.076;17.046;2024-01-27T13:51:09;8.38;;;2.08;;
31716;SDS011;18301;51.076;17.046;2024-01-27T13:56:11;7.28;;;2.40;;
31716;SDS011;18301;51.076;17.046;2024-01-27T14:01:12;7.57;;;2.20;;
31716;SDS011;18301;51.076;17.046;2024-01-27T14:06:14;9.52;;;2.22;;
31716;SDS011;18301;51.076;17.046;2024-01-27T14:11:16;9.30;;;2.50;;
31716;SDS011;18301;51.076;17.046;2024-01-27T14:16:19;8.13;;;2.33;;
31716;SDS011;18301;51.076;17.046;2024-01-27T14:21:22;7.63;;;2.15;;
31716;SDS011;18301;51.076;17.046;2024-01-27T14:26:24;11.95;;;1.95;;
31716;SDS011;18301;51.076;17.046;2024-01-27T14:31:25;9.95;;;2.35;;
31716;SDS011;18301;51.076;17.046;2024-01-27T14:36:27;7.60;;;2.50;;
31716;SDS011;18301;51.076;17.046;2024-01-27T14:41:29;7.20;;;2.00;;
31716;SDS011;18301;51.076;17.046;2024-01-27T14:46:31;11.73;;;2.58;;
31716;SDS011;18301;51.076;17.046;2024-01-27T14:51:33;8.90;;;2.20;;
31716;SDS011;18301;51.076;17.046;2024-01-27T14:56:37;8.90;;;2.60;;
31716;SDS011;18301;51.076;17.046;2024-01-27T15:01:39;7.53;;;2.25;;
31716;SDS011;18301;51.076;17.046;2024-01-27T15:06:41;10.65;;;2.90;;
31716;SDS011;18301;51.076;17.046;2024-01-27T15:11:43;8.02;;;2.45;;
31716;SDS011;18301;51.076;17.046;2024-01-27T15:16:47;11.45;;;2.63;;
31716;SDS011;18301;51.076;17.046;2024-01-27T15:21:49;10.27;;;2.63;;
31716;SDS011;18301;51.076;17.046;2024-01-27T15:26:51;7.85;;;3.08;;
31716;SDS011;18301;51.076;17.046;2024-01-27T15:31:55;9.20;;;3.28;;
31716;SDS011;18301;51.076;17.046;2024-01-27T15:36:57;9.73;;;2.60;;
31716;SDS011;18301;51.076;17.046;2024-01-27T15:41:59;11.55;;;2.80;;
31716;SDS011;18301;51.076;17.046;2024-01-27T15:47:03;13.00;;;3.03;;
31716;SDS011;18301;51.076;17.046;2024-01-27T15:52:05;8.50;;;2.60;;
31716;SDS011;18301;51.076;17.046;2024-01-27T15:57:08;6.82;;;2.63;;
31716;SDS011;18301;51.076;17.046;2024-01-27T16:02:09;9.35;;;2.95;;
31716;SDS011;18301;51.076;17.046;2024-01-27T16:07:11;7.38;;;3.15;;
31716;SDS011;18301;51.076;17.046;2024-01-27T16:12:13;8.52;;;2.92;;
31716;SDS011;18301;51.076;17.046;2024-01-27T16:17:15;12.88;;;3.53;;
31716;SDS011;18301;51.076;17.046;2024-01-27T16:22:17;9.60;;;2.95;;
31716;SDS011;18301;51.076;17.046;2024-01-27T16:27:18;13.43;;;3.58;;
31716;SDS011;18301;51.076;17.046;2024-01-27T16:32:22;12.82;;;3.28;;
31716;SDS011;18301;51.076;17.046;2024-01-27T16:37:24;9.27;;;2.88;;
31716;SDS011;18301;51.076;17.046;2024-01-27T16:42:25;10.05;;;3.25;;
31716;SDS011;18301;51.076;17.046;2024-01-27T16:47:27;10.65;;;3.47;;
31716;SDS011;18301;51.076;17.046;2024-01-27T16:52:29;12.32;;;3.20;;
31716;SDS011;18301;51.076;17.046;2024-01-27T16:57:30;11.45;;;3.72;;
31716;SDS011;18301;51.076;17.046;2024-01-27T17:02:33;11.82;;;3.33;;
31716;SDS011;18301;51.076;17.046;2024-01-27T17:07:35;10.88;;;3.67;;
31716;SDS011;18301;51.076;17.046;2024-01-27T17:12:37;13.00;;;3.45;;
31716;SDS011;18301;51.076;17.046;2024-01-27T17:17:38;14.88;;;3.65;;
31716;SDS011;18301;51.076;17.046;2024-01-27T17:22:40;14.80;;;3.75;;
31716;SDS011;18301;51.076;17.046;2024-01-27T17:27:42;15.05;;;4.22;;
31716;SDS011;18301;51.076;17.046;2024-01-27T17:32:43;15.13;;;4.05;;
31716;SDS011;18301;51.076;17.046;2024-01-27T17:37:45;12.10;;;4.20;;
31716;SDS011;18301;51.076;17.046;2024-01-27T17:42:47;14.82;;;5.05;;
31716;SDS011;18301;51.076;17.046;2024-01-27T17:47:49;15.43;;;5.38;;
31716;SDS011;18301;51.076;17.046;2024-01-27T17:52:54;15.73;;;5.22;;
31716;SDS011;18301;51.076;17.046;2024-01-27T17:57:55;13.63;;;4.05;;
31716;SDS011;18301;51.076;17.046;2024-01-27T18:02:58;11.68;;;3.92;;
31716;SDS011;18301;51.076;17.046;2024-01-27T18:07:59;12.02;;;3.55;;
31716;SDS011;18301;51.076;17.046;2024-01-27T18:13:01;17.02;;;5.07;;
31716;SDS011;18301;51.076;17.046;2024-01-27T18:18:03;14.73;;;4.72;;
31716;SDS011;18301;51.076;17.046;2024-01-27T18:23:05;18.80;;;5.15;;
31716;SDS011;18301;51.076;17.046;2024-01-27T18:28:06;11.60;;;4.32;;
31716;SDS011;18301;51.076;17.046;2024-01-27T18:33:08;14.02;;;4.65;;
31716;SDS011;18301;51.076;17.046;2024-01-27T18:38:10;11.70;;;4.25;;
31716;SDS011;18301;51.076;17.046;2024-01-27T18:43:13;12.50;;;4.25;;
31716;SDS011;18301;51.076;17.046;2024-01-27T18:48:14;14.80;;;4.72;;
31716;SDS011;18301;51.076;17.046;2024-01-27T18:53:16;11.70;;;4.60;;
31716;SDS011;18301;51.076;17.046;2024-01-27T18:58:18;11.32;;;3.90;;
31716;SDS011;18301;51.076;17.046;2024-01-27T19:03:23;13.35;;;5.03;;
31716;SDS011;18301;51.076;17.046;2024-01-27T19:08:25;13.35;;;4.32;;
31716;SDS011;18301;51.076;17.046;2024-01-27T19:13:26;17.00;;;5.65;;
31716;SDS011;18301;51.076;17.046;2024-01-27T19:18:28;14.65;;;4.82;;
31716;SDS011;18301;51.076;17.046;2024-01-27T19:23:30;12.07;;;4.25;;
31716;SDS011;18301;51.076;17.046;2024-01-27T19:28:32;11.48;;;4.35;;
31716;SDS011;18301;51.076;17.046;2024-01-27T19:33:34;14.05;;;4.10;;
31716;SDS011;18301;51.076;17.046;2024-01-27T19:38:36;13.88;;;4.32;;
31716;SDS011;18301;51.076;17.046;2024-01-27T19:43:38;13.02;;;4.20;;
31716;SDS011;18301;51.076;17.046;2024-01-27T19:48:42;10.10;;;3.53;;
31716;SDS011;18301;51.076;17.046;2024-01-27T19:53:44;11.80;;;3.15;;
31716;SDS011;18301;51.076;17.046;2024-01-27T19:58:46;10.50;;;3.97;;
31716;SDS011;18301;51.076;17.046;2024-01-27T20:03:47;8.98;;;3.92;;
31716;SDS011;18301;51.076;17.046;2024-01-27T20:08:49;10.38;;;3.40;;
31716;SDS011;18301;51.076;17.046;2024-01-27T20:13:51;16.05;;;4.50;;
31716;SDS011;18301;51.076;17.046;2024-01-27T20:18:54;12.55;;;4.13;;
31716;SDS011;18301;51.076;17.046;2024-01-27T20:23:56;11.95;;;4.05;;
31716;SDS011;18301;51.076;17.046;2024-01-27T20:28:57;11.77;;;4.65;;
31716;SDS011;18301;51.076;17.046;2024-01-27T20:34:00;15.20;;;4.30;;
31716;SDS011;18301;51.076;17.046;2024-01-27T20:39:02;11.68;;;4.18;;
31716;SDS011;18301;51.076;17.046;2024-01-27T20:44:07;9.80;;;4.32;;
31716;SDS011;18301;51.076;17.046;2024-01-27T20:49:08;14.18;;;4.70;;
31716;SDS011;18301;51.076;17.046;2024-01-27T20:54:10;11.70;;;4.55;;
31716;SDS011;18301;51.076;17.046;2024-01-27T20:59:12;14.82;;;4.75;;
31716;SDS011;18301;51.076;17.046;2024-01-27T21:04:14;18.63;;;4.70;;
31716;SDS011;18301;51.076;17.046;2024-01-27T21:09:16;11.38;;;4.40;;
31716;SDS011;18301;51.076;17.046;2024-01-27T21:14:18;11.40;;;4.32;;
31716;SDS011;18301;51.076;17.046;2024-01-27T21:19:20;12.02;;;4.25;;
31716;SDS011;18301;51.076;17.046;2024-01-27T21:24:21;13.60;;;4.55;;
31716;SDS011;18301;51.076;17.046;2024-01-27T21:29:23;13.20;;;3.90;;
31716;SDS011;18301;51.076;17.046;2024-01-27T21:34:25;15.45;;;4.72;;
31716;SDS011;18301;51.076;17.046;2024-01-27T21:39:27;18.73;;;4.82;;
31716;SDS011;18301;51.076;17.046;2024-01-27T21:44:28;15.73;;;5.22;;
31716;SDS011;18301;51.076;17.046;2024-01-27T21:49:30;12.57;;;3.92;;
31716;SDS011;18301;51.076;17.046;2024-01-27T21:54:32;14.38;;;4.78;;
31716;SDS011;18301;51.076;17.046;2024-01-27T21:59:34;17.08;;;5.32;;
31716;SDS011;18301;51.076;17.046;2024-01-27T22:04:36;15.65;;;5.30;;
31716;SDS011;18301;51.076;17.046;2024-01-27T22:09:39;17.02;;;5.35;;
31716;SDS011;18301;51.076;17.046;2024-01-27T22:14:41;15.45;;;5.38;;
31716;SDS011;18301;51.076;17.046;2024-01-27T22:19:43;19.23;;;5.18;;
31716;SDS011;18301;51.076;17.046;2024-01-27T22:24:44;15.23;;;5.10;;
31716;SDS011;18301;51.076;17.046;2024-01-27T22:29:46;16.23;;;5.18;;
31716;SDS011;18301;51.076;17.046;2024-01-27T22:34:48;15.38;;;5.18;;
31716;SDS011;18301;51.076;17.046;2024-01-27T22:39:50;14.93;;;5.78;;
31716;SDS011;18301;51.076;17.046;2024-01-27T22:44:51;17.98;;;6.25;;
31716;SDS011;18301;51.076;17.046;2024-01-27T22:49:53;17.50;;;5.50;;
31716;SDS011;18301;51.076;17.046;2024-01-27T22:54:55;19.13;;;5.72;;
31716;SDS011;18301;51.076;17.046;2024-01-27T22:59:57;16.02;;;5.05;;
31716;SDS011;18301;51.076;17.046;2024-01-27T23:04:59;13.13;;;5.15;;
31716;SDS011;18301;51.076;17.046;2024-01-27T23:10:01;15.27;;;4.70;;
31716;SDS011;18301;51.076;17.046;2024-01-27T23:15:02;14.65;;;5.05;;
31716;SDS011;18301;51.076;17.046;2024-01-27T23:20:06;15.23;;;5.22;;
31716;SDS011;18301;51.076;17.046;2024-01-27T23:25:08;19.08;;;5.63;;
31716;SDS011;18301;51.076;17.046;2024-01-27T23:30:10;13.40;;;5.00;;
31716;SDS011;18301;51.076;17.046;2024-01-27T23:35:12;12.93;;;5.20;;
31716;SDS011;18301;51.076;17.046;2024-01-27T23:40:14;14.45;;;4.85;;
31716;SDS011;18301;51.076;17.046;2024-01-27T23:45:17;11.48;;;4.30;;
31716;SDS011;18301;51.076;17.046;2024-01-27T23:50:18;11.52;;;4.60;;
31716;SDS011;18301;51.076;17.046;2024-01-27T23:55:20;15.80;;;4.63;;
